sensor_id;sensor_type;location;lat;lon;timestamp;P1;durP1;ratioP1;P2;durP2;ratioP2
32838;SDS011;19182;41.820;12.808;2024-01-27T00:00:26;49.97;;;33.13;;
32838;SDS011;19182;41.820;12.808;2024-01-27T00:02:52;51.67;;;32.53;;
32838;SDS011;19182;41.820;12.808;2024-01-27T00:05:18;49.70;;;32.10;;
32838;SDS011;19182;41.820;12.808;2024-01-27T00:07:46;52.33;;;33.22;;
32838;SDS011;19182;41.820;12.808;2024-01-27T00:10:12;57.88;;;33.85;;
32838;SDS011;19182;41.820;12.808;2024-01-27T00:12:39;54.95;;;32.40;;
32838;SDS011;19182;41.820;12.808;2024-01-27T00:15:06;47.00;;;30.48;;
32838;SDS011;19182;41.820;12.808;2024-01-27T00:17:33;42.78;;;28.40;;
32838;SDS011;19182;41.820;12.808;2024-01-27T00:20:00;44.17;;;26.92;;
32838;SDS011;19182;41.820;12.808;2024-01-27T00:22:26;43.13;;;28.80;;
32838;SDS011;19182;41.820;12.808;2024-01-27T00:24:53;48.50;;;29.05;;
32838;SDS011;19182;41.820;12.808;2024-01-27T00:27:19;46.08;;;27.60;;
32838;SDS011;19182;41.820;12.808;2024-01-27T00:29:45;45.33;;;28.65;;
32838;SDS011;19182;41.820;12.808;2024-01-27T00:32:11;49.80;;;26.95;;
32838;SDS011;19182;41.820;12.808;2024-01-27T00:34:39;43.72;;;27.58;;
32838;SDS011;19182;41.820;12.808;2024-01-27T00:37:04;39.70;;;25.45;;
32838;SDS011;19182;41.820;12.808;2024-01-27T00:39:31;47.10;;;24.95;;
32838;SDS011;19182;41.820;12.808;2024-01-27T00:42:01;40.83;;;25.38;;
32838;SDS011;19182;41.820;12.808;2024-01-27T00:44:26;46.40;;;25.80;;
32838;SDS011;19182;41.820;12.808;2024-01-27T00:46:52;45.28;;;25.40;;
32838;SDS011;19182;41.820;12.808;2024-01-27T00:49:18;36.85;;;25.65;;
32838;SDS011;19182;41.820;12.808;2024-01-27T00:51:45;34.95;;;23.48;;
32838;SDS011;19182;41.820;12.808;2024-01-27T00:54:11;35.47;;;22.63;;
32838;SDS011;19182;41.820;12.808;2024-01-27T00:56:36;40.10;;;23.75;;
32838;SDS011;19182;41.820;12.808;2024-01-27T00:59:02;45.35;;;23.90;;
32838;SDS011;19182;41.820;12.808;2024-01-27T01:01:28;36.63;;;24.52;;
32838;SDS011;19182;41.820;12.808;2024-01-27T01:03:54;37.53;;;22.75;;
32838;SDS011;19182;41.820;12.808;2024-01-27T01:06:21;37.60;;;22.52;;
32838;SDS011;19182;41.820;12.808;2024-01-27T01:08:48;33.95;;;23.05;;
32838;SDS011;19182;41.820;12.808;2024-01-27T01:11:13;40.53;;;23.83;;
32838;SDS011;19182;41.820;12.808;2024-01-27T01:13:40;39.22;;;22.63;;
32838;SDS011;19182;41.820;12.808;2024-01-27T01:16:05;34.75;;;22.48;;
32838;SDS011;19182;41.820;12.808;2024-01-27T01:18:33;34.45;;;20.73;;
32838;SDS011;19182;41.820;12.808;2024-01-27T01:20:59;37.00;;;22.40;;
32838;SDS011;19182;41.820;12.808;2024-01-27T01:23:25;36.40;;;23.92;;
32838;SDS011;19182;41.820;12.808;2024-01-27T01:25:52;35.53;;;23.08;;
32838;SDS011;19182;41.820;12.808;2024-01-27T01:28:18;36.92;;;24.13;;
32838;SDS011;19182;41.820;12.808;2024-01-27T01:30:43;34.97;;;21.83;;
32838;SDS011;19182;41.820;12.808;2024-01-27T01:33:14;30.35;;;20.50;;
32838;SDS011;19182;41.820;12.808;2024-01-27T01:35:40;36.90;;;21.70;;
32838;SDS011;19182;41.820;12.808;2024-01-27T01:38:07;29.40;;;20.17;;
32838;SDS011;19182;41.820;12.808;2024-01-27T01:40:33;33.13;;;20.15;;
32838;SDS011;19182;41.820;12.808;2024-01-27T01:42:59;31.05;;;20.60;;
32838;SDS011;19182;41.820;12.808;2024-01-27T01:45:25;36.67;;;22.83;;
32838;SDS011;19182;41.820;12.808;2024-01-27T01:47:51;33.72;;;20.60;;
32838;SDS011;19182;41.820;12.808;2024-01-27T01:50:17;38.33;;;22.17;;
32838;SDS011;19182;41.820;12.808;2024-01-27T01:52:43;30.35;;;18.45;;
32838;SDS011;19182;41.820;12.808;2024-01-27T01:55:09;31.77;;;18.90;;
32838;SDS011;19182;41.820;12.808;2024-01-27T01:57:36;30.77;;;19.25;;
32838;SDS011;19182;41.820;12.808;2024-01-27T02:00:03;26.17;;;18.80;;
32838;SDS011;19182;41.820;12.808;2024-01-27T02:02:31;29.98;;;18.67;;
32838;SDS011;19182;41.820;12.808;2024-01-27T02:04:57;35.15;;;19.45;;
32838;SDS011;19182;41.820;12.808;2024-01-27T02:07:22;35.97;;;20.10;;
32838;SDS011;19182;41.820;12.808;2024-01-27T02:09:48;31.98;;;19.60;;
32838;SDS011;19182;41.820;12.808;2024-01-27T02:12:17;36.42;;;20.50;;
32838;SDS011;19182;41.820;12.808;2024-01-27T02:14:48;36.25;;;21.35;;
32838;SDS011;19182;41.820;12.808;2024-01-27T02:17:15;36.40;;;20.77;;
32838;SDS011;19182;41.820;12.808;2024-01-27T02:19:40;36.90;;;21.10;;
32838;SDS011;19182;41.820;12.808;2024-01-27T02:22:06;41.80;;;21.90;;
32838;SDS011;19182;41.820;12.808;2024-01-27T02:24:32;31.85;;;20.15;;
32838;SDS011;19182;41.820;12.808;2024-01-27T02:27:01;32.10;;;20.55;;
32838;SDS011;19182;41.820;12.808;2024-01-27T02:29:30;27.40;;;18.58;;
32838;SDS011;19182;41.820;12.808;2024-01-27T02:31:55;29.88;;;18.77;;
32838;SDS011;19182;41.820;12.808;2024-01-27T02:34:21;32.15;;;19.77;;
32838;SDS011;19182;41.820;12.808;2024-01-27T02:36:50;36.08;;;19.23;;
32838;SDS011;19182;41.820;12.808;2024-01-27T02:39:17;37.75;;;20.98;;
32838;SDS011;19182;41.820;12.808;2024-01-27T02:41:43;38.90;;;19.70;;
32838;SDS011;19182;41.820;12.808;2024-01-27T02:44:08;32.65;;;18.92;;
32838;SDS011;19182;41.820;12.808;2024-01-27T02:46:34;33.33;;;20.00;;
32838;SDS011;19182;41.820;12.808;2024-01-27T02:49:01;34.58;;;20.08;;
32838;SDS011;19182;41.820;12.808;2024-01-27T02:51:27;31.30;;;18.52;;
32838;SDS011;19182;41.820;12.808;2024-01-27T02:53:55;28.75;;;17.55;;
32838;SDS011;19182;41.820;12.808;2024-01-27T02:56:21;31.33;;;18.15;;
32838;SDS011;19182;41.820;12.808;2024-01-27T02:58:47;31.90;;;17.58;;
32838;SDS011;19182;41.820;12.808;2024-01-27T03:01:13;32.38;;;19.30;;
32838;SDS011;19182;41.820;12.808;2024-01-27T03:03:39;31.05;;;17.15;;
32838;SDS011;19182;41.820;12.808;2024-01-27T03:06:05;29.02;;;17.58;;
32838;SDS011;19182;41.820;12.808;2024-01-27T03:08:30;32.28;;;19.20;;
32838;SDS011;19182;41.820;12.808;2024-01-27T03:10:56;31.73;;;19.73;;
32838;SDS011;19182;41.820;12.808;2024-01-27T03:13:22;34.13;;;20.25;;
32838;SDS011;19182;41.820;12.808;2024-01-27T03:15:48;34.55;;;21.17;;
32838;SDS011;19182;41.820;12.808;2024-01-27T03:18:14;31.40;;;18.98;;
32838;SDS011;19182;41.820;12.808;2024-01-27T03:20:40;34.55;;;20.23;;
32838;SDS011;19182;41.820;12.808;2024-01-27T03:23:06;39.53;;;21.67;;
32838;SDS011;19182;41.820;12.808;2024-01-27T03:25:33;28.95;;;17.75;;
32838;SDS011;19182;41.820;12.808;2024-01-27T03:28:01;30.73;;;19.38;;
32838;SDS011;19182;41.820;12.808;2024-01-27T03:30:27;31.85;;;16.55;;
32838;SDS011;19182;41.820;12.808;2024-01-27T03:32:55;28.60;;;16.58;;
32838;SDS011;19182;41.820;12.808;2024-01-27T03:35:21;33.40;;;18.00;;
32838;SDS011;19182;41.820;12.808;2024-01-27T03:37:47;33.15;;;19.83;;
32838;SDS011;19182;41.820;12.808;2024-01-27T03:40:14;33.60;;;19.13;;
32838;SDS011;19182;41.820;12.808;2024-01-27T03:42:41;29.58;;;17.65;;
32838;SDS011;19182;41.820;12.808;2024-01-27T03:45:08;28.95;;;17.48;;
32838;SDS011;19182;41.820;12.808;2024-01-27T03:47:34;22.25;;;15.55;;
32838;SDS011;19182;41.820;12.808;2024-01-27T03:50:01;25.20;;;15.90;;
32838;SDS011;19182;41.820;12.808;2024-01-27T03:52:28;26.48;;;17.02;;
32838;SDS011;19182;41.820;12.808;2024-01-27T03:54:55;32.15;;;17.42;;
32838;SDS011;19182;41.820;12.808;2024-01-27T03:57:21;27.58;;;16.55;;
32838;SDS011;19182;41.820;12.808;2024-01-27T03:59:47;26.33;;;15.88;;
32838;SDS011;19182;41.820;12.808;2024-01-27T04:02:13;27.60;;;16.70;;
32838;SDS011;19182;41.820;12.808;2024-01-27T04:04:39;28.15;;;16.95;;
32838;SDS011;19182;41.820;12.808;2024-01-27T04:07:05;23.63;;;16.45;;
32838;SDS011;19182;41.820;12.808;2024-01-27T04:09:32;25.48;;;16.80;;
32838;SDS011;19182;41.820;12.808;2024-01-27T04:12:01;31.85;;;17.90;;
32838;SDS011;19182;41.820;12.808;2024-01-27T04:14:27;29.20;;;17.20;;
32838;SDS011;19182;41.820;12.808;2024-01-27T04:16:54;33.05;;;19.13;;
32838;SDS011;19182;41.820;12.808;2024-01-27T04:19:21;26.45;;;19.00;;
32838;SDS011;19182;41.820;12.808;2024-01-27T04:21:48;31.67;;;19.33;;
32838;SDS011;19182;41.820;12.808;2024-01-27T04:24:15;32.50;;;20.30;;
32838;SDS011;19182;41.820;12.808;2024-01-27T04:26:41;37.67;;;21.15;;
32838;SDS011;19182;41.820;12.808;2024-01-27T04:29:07;29.75;;;18.75;;
32838;SDS011;19182;41.820;12.808;2024-01-27T04:31:33;37.30;;;21.77;;
32838;SDS011;19182;41.820;12.808;2024-01-27T04:33:59;29.55;;;18.30;;
32838;SDS011;19182;41.820;12.808;2024-01-27T04:36:26;35.10;;;19.20;;
32838;SDS011;19182;41.820;12.808;2024-01-27T04:38:55;29.25;;;18.80;;
32838;SDS011;19182;41.820;12.808;2024-01-27T04:41:21;32.42;;;19.58;;
32838;SDS011;19182;41.820;12.808;2024-01-27T04:43:48;34.63;;;20.38;;
32838;SDS011;19182;41.820;12.808;2024-01-27T04:46:15;27.15;;;18.70;;
32838;SDS011;19182;41.820;12.808;2024-01-27T04:48:41;32.65;;;19.48;;
32838;SDS011;19182;41.820;12.808;2024-01-27T04:51:07;32.53;;;20.77;;
32838;SDS011;19182;41.820;12.808;2024-01-27T04:53:32;35.13;;;21.15;;
32838;SDS011;19182;41.820;12.808;2024-01-27T04:56:00;35.50;;;20.77;;
32838;SDS011;19182;41.820;12.808;2024-01-27T04:58:26;38.78;;;21.63;;
32838;SDS011;19182;41.820;12.808;2024-01-27T05:00:52;37.60;;;20.25;;
32838;SDS011;19182;41.820;12.808;2024-01-27T05:03:18;35.88;;;21.48;;
32838;SDS011;19182;41.820;12.808;2024-01-27T05:05:44;31.05;;;19.88;;
32838;SDS011;19182;41.820;12.808;2024-01-27T05:08:10;31.08;;;19.80;;
32838;SDS011;19182;41.820;12.808;2024-01-27T05:10:37;41.67;;;20.38;;
32838;SDS011;19182;41.820;12.808;2024-01-27T05:13:03;34.35;;;20.98;;
32838;SDS011;19182;41.820;12.808;2024-01-27T05:15:29;30.85;;;20.08;;
32838;SDS011;19182;41.820;12.808;2024-01-27T05:17:56;39.13;;;21.00;;
32838;SDS011;19182;41.820;12.808;2024-01-27T05:20:22;36.55;;;20.42;;
32838;SDS011;19182;41.820;12.808;2024-01-27T05:22:48;35.92;;;20.15;;
32838;SDS011;19182;41.820;12.808;2024-01-27T05:25:13;31.75;;;19.92;;
32838;SDS011;19182;41.820;12.808;2024-01-27T05:27:41;31.08;;;19.40;;
32838;SDS011;19182;41.820;12.808;2024-01-27T05:30:07;35.67;;;17.52;;
32838;SDS011;19182;41.820;12.808;2024-01-27T05:32:35;33.53;;;18.77;;
32838;SDS011;19182;41.820;12.808;2024-01-27T05:35:00;27.60;;;17.55;;
32838;SDS011;19182;41.820;12.808;2024-01-27T05:37:27;27.58;;;17.92;;
32838;SDS011;19182;41.820;12.808;2024-01-27T05:39:55;36.75;;;19.20;;
32838;SDS011;19182;41.820;12.808;2024-01-27T05:42:22;29.38;;;17.83;;
32838;SDS011;19182;41.820;12.808;2024-01-27T05:44:48;27.45;;;17.58;;
32838;SDS011;19182;41.820;12.808;2024-01-27T05:47:15;33.97;;;19.52;;
32838;SDS011;19182;41.820;12.808;2024-01-27T05:49:44;37.50;;;18.48;;
32838;SDS011;19182;41.820;12.808;2024-01-27T05:52:10;32.50;;;18.10;;
32838;SDS011;19182;41.820;12.808;2024-01-27T05:54:36;26.08;;;17.80;;
32838;SDS011;19182;41.820;12.808;2024-01-27T05:59:32;36.17;;;18.75;;
32838;SDS011;19182;41.820;12.808;2024-01-27T06:02:01;26.95;;;17.17;;
32838;SDS011;19182;41.820;12.808;2024-01-27T06:04:26;27.27;;;17.25;;
32838;SDS011;19182;41.820;12.808;2024-01-27T06:06:52;24.77;;;16.20;;
32838;SDS011;19182;41.820;12.808;2024-01-27T06:09:18;22.70;;;15.13;;
32838;SDS011;19182;41.820;12.808;2024-01-27T06:11:44;25.80;;;16.08;;
32838;SDS011;19182;41.820;12.808;2024-01-27T06:14:11;30.50;;;17.25;;
32838;SDS011;19182;41.820;12.808;2024-01-27T06:16:37;29.50;;;16.77;;
32838;SDS011;19182;41.820;12.808;2024-01-27T06:19:03;23.67;;;15.93;;
32838;SDS011;19182;41.820;12.808;2024-01-27T06:21:28;28.25;;;17.40;;
32838;SDS011;19182;41.820;12.808;2024-01-27T06:23:55;26.90;;;16.33;;
32838;SDS011;19182;41.820;12.808;2024-01-27T06:26:21;29.48;;;16.98;;
32838;SDS011;19182;41.820;12.808;2024-01-27T06:28:48;26.33;;;16.42;;
32838;SDS011;19182;41.820;12.808;2024-01-27T06:31:15;26.40;;;16.70;;
32838;SDS011;19182;41.820;12.808;2024-01-27T06:33:41;27.83;;;15.77;;
32838;SDS011;19182;41.820;12.808;2024-01-27T06:36:08;32.53;;;16.45;;
32838;SDS011;19182;41.820;12.808;2024-01-27T06:38:34;28.70;;;16.65;;
32838;SDS011;19182;41.820;12.808;2024-01-27T06:41:03;22.67;;;14.35;;
32838;SDS011;19182;41.820;12.808;2024-01-27T06:43:28;32.08;;;16.63;;
32838;SDS011;19182;41.820;12.808;2024-01-27T06:45:54;23.90;;;15.52;;
32838;SDS011;19182;41.820;12.808;2024-01-27T06:48:22;30.42;;;16.70;;
32838;SDS011;19182;41.820;12.808;2024-01-27T06:50:50;30.15;;;15.73;;
32838;SDS011;19182;41.820;12.808;2024-01-27T06:53:19;28.00;;;15.50;;
32838;SDS011;19182;41.820;12.808;2024-01-27T06:56:04;27.50;;;15.80;;
32838;SDS011;19182;41.820;12.808;2024-01-27T06:58:32;29.83;;;16.05;;
32838;SDS011;19182;41.820;12.808;2024-01-27T07:00:59;31.33;;;14.80;;
32838;SDS011;19182;41.820;12.808;2024-01-27T07:03:25;21.48;;;14.27;;
32838;SDS011;19182;41.820;12.808;2024-01-27T07:05:51;24.50;;;14.88;;
32838;SDS011;19182;41.820;12.808;2024-01-27T07:08:17;24.42;;;14.52;;
32838;SDS011;19182;41.820;12.808;2024-01-27T07:10:43;20.27;;;14.23;;
32838;SDS011;19182;41.820;12.808;2024-01-27T07:13:08;23.60;;;15.40;;
32838;SDS011;19182;41.820;12.808;2024-01-27T07:15:36;26.13;;;14.80;;
32838;SDS011;19182;41.820;12.808;2024-01-27T07:18:02;25.90;;;13.93;;
32838;SDS011;19182;41.820;12.808;2024-01-27T07:20:29;19.95;;;13.40;;
32838;SDS011;19182;41.820;12.808;2024-01-27T07:22:54;24.02;;;14.00;;
32838;SDS011;19182;41.820;12.808;2024-01-27T07:25:20;22.80;;;13.52;;
32838;SDS011;19182;41.820;12.808;2024-01-27T07:27:46;29.60;;;13.27;;
32838;SDS011;19182;41.820;12.808;2024-01-27T07:30:14;21.73;;;13.88;;
32838;SDS011;19182;41.820;12.808;2024-01-27T07:32:40;26.38;;;14.82;;
32838;SDS011;19182;41.820;12.808;2024-01-27T07:35:09;26.53;;;13.60;;
32838;SDS011;19182;41.820;12.808;2024-01-27T07:37:36;24.15;;;15.82;;
32838;SDS011;19182;41.820;12.808;2024-01-27T07:40:03;32.08;;;16.40;;
32838;SDS011;19182;41.820;12.808;2024-01-27T07:42:30;27.48;;;16.65;;
32838;SDS011;19182;41.820;12.808;2024-01-27T07:44:56;32.65;;;16.55;;
32838;SDS011;19182;41.820;12.808;2024-01-27T07:47:23;40.17;;;19.33;;
32838;SDS011;19182;41.820;12.808;2024-01-27T07:49:49;29.58;;;18.23;;
32838;SDS011;19182;41.820;12.808;2024-01-27T07:52:16;28.30;;;17.13;;
32838;SDS011;19182;41.820;12.808;2024-01-27T07:54:43;27.30;;;14.93;;
32838;SDS011;19182;41.820;12.808;2024-01-27T07:57:10;25.20;;;12.75;;
32838;SDS011;19182;41.820;12.808;2024-01-27T07:59:38;21.02;;;11.60;;
32838;SDS011;19182;41.820;12.808;2024-01-27T08:02:04;19.27;;;12.40;;
32838;SDS011;19182;41.820;12.808;2024-01-27T08:04:30;18.20;;;10.13;;
32838;SDS011;19182;41.820;12.808;2024-01-27T08:06:56;22.45;;;11.30;;
32838;SDS011;19182;41.820;12.808;2024-01-27T08:09:23;18.58;;;10.73;;
32838;SDS011;19182;41.820;12.808;2024-01-27T08:11:50;16.73;;;10.15;;
32838;SDS011;19182;41.820;12.808;2024-01-27T08:14:18;13.50;;;8.23;;
32838;SDS011;19182;41.820;12.808;2024-01-27T08:16:46;12.48;;;7.53;;
32838;SDS011;19182;41.820;12.808;2024-01-27T08:19:11;13.15;;;7.25;;
32838;SDS011;19182;41.820;12.808;2024-01-27T08:21:44;11.75;;;7.07;;
32838;SDS011;19182;41.820;12.808;2024-01-27T08:24:12;12.60;;;6.50;;
32838;SDS011;19182;41.820;12.808;2024-01-27T08:26:41;8.55;;;6.32;;
32838;SDS011;19182;41.820;12.808;2024-01-27T08:29:11;12.48;;;5.75;;
32838;SDS011;19182;41.820;12.808;2024-01-27T08:31:37;8.40;;;5.28;;
32838;SDS011;19182;41.820;12.808;2024-01-27T08:34:04;9.35;;;5.55;;
32838;SDS011;19182;41.820;12.808;2024-01-27T08:36:30;10.18;;;5.57;;
32838;SDS011;19182;41.820;12.808;2024-01-27T08:38:56;12.43;;;6.13;;
32838;SDS011;19182;41.820;12.808;2024-01-27T08:41:22;12.98;;;6.97;;
32838;SDS011;19182;41.820;12.808;2024-01-27T08:43:48;11.05;;;6.78;;
32838;SDS011;19182;41.820;12.808;2024-01-27T08:46:14;17.15;;;9.70;;
32838;SDS011;19182;41.820;12.808;2024-01-27T08:48:43;19.40;;;10.95;;
32838;SDS011;19182;41.820;12.808;2024-01-27T08:51:09;20.20;;;10.90;;
32838;SDS011;19182;41.820;12.808;2024-01-27T08:53:35;17.83;;;11.13;;
32838;SDS011;19182;41.820;12.808;2024-01-27T08:56:01;19.70;;;11.13;;
32838;SDS011;19182;41.820;12.808;2024-01-27T08:58:27;14.35;;;8.80;;
32838;SDS011;19182;41.820;12.808;2024-01-27T09:00:54;11.52;;;6.75;;
32838;SDS011;19182;41.820;12.808;2024-01-27T09:03:25;14.98;;;8.25;;
32838;SDS011;19182;41.820;12.808;2024-01-27T09:05:52;12.07;;;8.00;;
32838;SDS011;19182;41.820;12.808;2024-01-27T09:08:17;11.77;;;7.95;;
32838;SDS011;19182;41.820;12.808;2024-01-27T09:10:43;13.70;;;9.00;;
32838;SDS011;19182;41.820;12.808;2024-01-27T09:13:09;20.00;;;11.43;;
32838;SDS011;19182;41.820;12.808;2024-01-27T09:15:36;12.68;;;7.90;;
32838;SDS011;19182;41.820;12.808;2024-01-27T09:18:02;16.48;;;9.55;;
32838;SDS011;19182;41.820;12.808;2024-01-27T09:20:31;13.77;;;8.68;;
32838;SDS011;19182;41.820;12.808;2024-01-27T09:22:57;8.75;;;5.90;;
32838;SDS011;19182;41.820;12.808;2024-01-27T09:25:23;11.48;;;7.00;;
32838;SDS011;19182;41.820;12.808;2024-01-27T09:27:52;11.35;;;6.68;;
32838;SDS011;19182;41.820;12.808;2024-01-27T09:30:18;11.45;;;7.05;;
32838;SDS011;19182;41.820;12.808;2024-01-27T09:32:44;11.38;;;6.85;;
32838;SDS011;19182;41.820;12.808;2024-01-27T09:35:10;11.05;;;6.00;;
32838;SDS011;19182;41.820;12.808;2024-01-27T09:37:36;9.35;;;5.55;;
32838;SDS011;19182;41.820;12.808;2024-01-27T09:40:08;14.40;;;6.40;;
32838;SDS011;19182;41.820;12.808;2024-01-27T09:42:36;11.13;;;6.40;;
32838;SDS011;19182;41.820;12.808;2024-01-27T09:45:07;9.13;;;6.40;;
32838;SDS011;19182;41.820;12.808;2024-01-27T09:47:35;10.07;;;6.10;;
32838;SDS011;19182;41.820;12.808;2024-01-27T09:50:03;8.02;;;5.25;;
32838;SDS011;19182;41.820;12.808;2024-01-27T09:52:30;9.02;;;5.10;;
32838;SDS011;19182;41.820;12.808;2024-01-27T09:54:56;8.98;;;4.80;;
32838;SDS011;19182;41.820;12.808;2024-01-27T09:57:25;10.82;;;5.63;;
32838;SDS011;19182;41.820;12.808;2024-01-27T09:59:56;8.95;;;5.43;;
32838;SDS011;19182;41.820;12.808;2024-01-27T10:02:22;9.50;;;5.30;;
32838;SDS011;19182;41.820;12.808;2024-01-27T10:04:50;8.80;;;5.22;;
32838;SDS011;19182;41.820;12.808;2024-01-27T10:07:17;9.63;;;5.43;;
32838;SDS011;19182;41.820;12.808;2024-01-27T10:09:43;7.22;;;5.50;;
32838;SDS011;19182;41.820;12.808;2024-01-27T10:12:13;8.93;;;5.68;;
32838;SDS011;19182;41.820;12.808;2024-01-27T10:14:41;8.38;;;5.30;;
32838;SDS011;19182;41.820;12.808;2024-01-27T10:17:12;8.70;;;5.25;;
32838;SDS011;19182;41.820;12.808;2024-01-27T10:19:47;12.45;;;5.82;;
32838;SDS011;19182;41.820;12.808;2024-01-27T10:22:25;11.90;;;5.60;;
32838;SDS011;19182;41.820;12.808;2024-01-27T10:24:53;9.52;;;5.60;;
32838;SDS011;19182;41.820;12.808;2024-01-27T10:27:24;11.30;;;5.88;;
32838;SDS011;19182;41.820;12.808;2024-01-27T10:29:53;10.80;;;5.65;;
32838;SDS011;19182;41.820;12.808;2024-01-27T10:32:22;10.30;;;5.80;;
32838;SDS011;19182;41.820;12.808;2024-01-27T10:35:10;10.68;;;5.90;;
32838;SDS011;19182;41.820;12.808;2024-01-27T10:37:36;9.27;;;5.88;;
32838;SDS011;19182;41.820;12.808;2024-01-27T10:40:03;8.38;;;4.95;;
32838;SDS011;19182;41.820;12.808;2024-01-27T10:42:35;11.18;;;5.55;;
32838;SDS011;19182;41.820;12.808;2024-01-27T10:45:08;8.60;;;5.28;;
32838;SDS011;19182;41.820;12.808;2024-01-27T10:47:36;15.32;;;9.35;;
32838;SDS011;19182;41.820;12.808;2024-01-27T10:50:04;20.17;;;17.67;;
32838;SDS011;19182;41.820;12.808;2024-01-27T10:52:38;7.60;;;5.10;;
32838;SDS011;19182;41.820;12.808;2024-01-27T10:55:10;7.45;;;4.80;;
32838;SDS011;19182;41.820;12.808;2024-01-27T10:57:45;8.13;;;4.80;;
32838;SDS011;19182;41.820;12.808;2024-01-27T11:00:13;8.88;;;5.20;;
32838;SDS011;19182;41.820;12.808;2024-01-27T11:02:40;8.03;;;4.70;;
32838;SDS011;19182;41.820;12.808;2024-01-27T11:05:10;8.38;;;4.72;;
32838;SDS011;19182;41.820;12.808;2024-01-27T11:07:39;9.30;;;4.88;;
32838;SDS011;19182;41.820;12.808;2024-01-27T11:10:08;11.63;;;4.65;;
32838;SDS011;19182;41.820;12.808;2024-01-27T11:12:34;7.47;;;4.38;;
32838;SDS011;19182;41.820;12.808;2024-01-27T11:15:01;6.75;;;4.20;;
32838;SDS011;19182;41.820;12.808;2024-01-27T11:17:27;9.60;;;4.78;;
32838;SDS011;19182;41.820;12.808;2024-01-27T11:19:56;10.35;;;5.28;;
32838;SDS011;19182;41.820;12.808;2024-01-27T11:22:26;7.63;;;4.57;;
32838;SDS011;19182;41.820;12.808;2024-01-27T11:25:09;9.32;;;5.10;;
32838;SDS011;19182;41.820;12.808;2024-01-27T11:27:43;9.68;;;4.88;;
32838;SDS011;19182;41.820;12.808;2024-01-27T11:30:31;9.10;;;5.13;;
32838;SDS011;19182;41.820;12.808;2024-01-27T11:33:01;10.68;;;5.45;;
32838;SDS011;19182;41.820;12.808;2024-01-27T11:35:28;10.77;;;5.40;;
32838;SDS011;19182;41.820;12.808;2024-01-27T11:37:54;10.93;;;6.68;;
32838;SDS011;19182;41.820;12.808;2024-01-27T11:40:20;9.52;;;5.10;;
32838;SDS011;19182;41.820;12.808;2024-01-27T11:42:59;9.82;;;5.32;;
32838;SDS011;19182;41.820;12.808;2024-01-27T11:45:29;7.65;;;5.28;;
32838;SDS011;19182;41.820;12.808;2024-01-27T11:50:25;6.37;;;4.30;;
32838;SDS011;19182;41.820;12.808;2024-01-27T11:52:51;7.70;;;5.20;;
32838;SDS011;19182;41.820;12.808;2024-01-27T11:55:19;10.60;;;5.72;;
32838;SDS011;19182;41.820;12.808;2024-01-27T11:57:45;9.77;;;5.07;;
32838;SDS011;19182;41.820;12.808;2024-01-27T12:00:12;7.63;;;5.63;;
32838;SDS011;19182;41.820;12.808;2024-01-27T12:02:40;8.23;;;4.85;;
32838;SDS011;19182;41.820;12.808;2024-01-27T12:05:09;10.63;;;6.07;;
32838;SDS011;19182;41.820;12.808;2024-01-27T12:07:35;13.95;;;7.47;;
32838;SDS011;19182;41.820;12.808;2024-01-27T12:10:01;15.98;;;9.70;;
32838;SDS011;19182;41.820;12.808;2024-01-27T12:12:28;16.45;;;9.05;;
32838;SDS011;19182;41.820;12.808;2024-01-27T12:14:54;17.42;;;10.57;;
32838;SDS011;19182;41.820;12.808;2024-01-27T12:17:24;16.75;;;10.48;;
32838;SDS011;19182;41.820;12.808;2024-01-27T12:19:50;16.25;;;10.63;;
32838;SDS011;19182;41.820;12.808;2024-01-27T12:22:30;18.52;;;11.98;;
32838;SDS011;19182;41.820;12.808;2024-01-27T12:25:08;16.38;;;10.63;;
32838;SDS011;19182;41.820;12.808;2024-01-27T12:27:35;19.05;;;12.00;;
32838;SDS011;19182;41.820;12.808;2024-01-27T12:30:03;17.48;;;12.25;;
32838;SDS011;19182;41.820;12.808;2024-01-27T12:32:31;19.67;;;12.93;;
32838;SDS011;19182;41.820;12.808;2024-01-27T12:34:58;20.25;;;12.77;;
32838;SDS011;19182;41.820;12.808;2024-01-27T12:37:25;20.45;;;12.52;;
32838;SDS011;19182;41.820;12.808;2024-01-27T12:39:53;20.27;;;12.20;;
32838;SDS011;19182;41.820;12.808;2024-01-27T12:42:21;18.90;;;12.13;;
32838;SDS011;19182;41.820;12.808;2024-01-27T12:44:50;20.38;;;14.40;;
32838;SDS011;19182;41.820;12.808;2024-01-27T12:47:19;20.45;;;13.15;;
32838;SDS011;19182;41.820;12.808;2024-01-27T12:49:45;23.85;;;14.45;;
32838;SDS011;19182;41.820;12.808;2024-01-27T12:52:12;23.73;;;14.05;;
32838;SDS011;19182;41.820;12.808;2024-01-27T12:54:38;21.08;;;13.30;;
32838;SDS011;19182;41.820;12.808;2024-01-27T12:57:07;22.53;;;13.63;;
32838;SDS011;19182;41.820;12.808;2024-01-27T12:59:34;19.13;;;13.05;;
32838;SDS011;19182;41.820;12.808;2024-01-27T13:02:00;23.90;;;13.85;;
32838;SDS011;19182;41.820;12.808;2024-01-27T13:04:29;22.50;;;12.98;;
32838;SDS011;19182;41.820;12.808;2024-01-27T13:06:57;21.33;;;12.82;;
32838;SDS011;19182;41.820;12.808;2024-01-27T13:09:23;19.33;;;13.23;;
32838;SDS011;19182;41.820;12.808;2024-01-27T13:11:49;19.33;;;13.32;;
32838;SDS011;19182;41.820;12.808;2024-01-27T13:14:18;20.73;;;13.40;;
32838;SDS011;19182;41.820;12.808;2024-01-27T13:16:46;18.35;;;13.20;;
32838;SDS011;19182;41.820;12.808;2024-01-27T13:19:12;24.85;;;14.38;;
32838;SDS011;19182;41.820;12.808;2024-01-27T13:21:38;24.15;;;13.70;;
32838;SDS011;19182;41.820;12.808;2024-01-27T13:24:05;25.05;;;14.40;;
32838;SDS011;19182;41.820;12.808;2024-01-27T13:26:34;23.07;;;14.17;;
32838;SDS011;19182;41.820;12.808;2024-01-27T13:29:03;23.43;;;14.20;;
32838;SDS011;19182;41.820;12.808;2024-01-27T13:31:32;29.20;;;15.75;;
32838;SDS011;19182;41.820;12.808;2024-01-27T13:33:58;27.45;;;15.82;;
32838;SDS011;19182;41.820;12.808;2024-01-27T13:36:24;20.88;;;13.65;;
32838;SDS011;19182;41.820;12.808;2024-01-27T13:38:53;26.63;;;14.25;;
32838;SDS011;19182;41.820;12.808;2024-01-27T13:41:20;25.48;;;15.25;;
32838;SDS011;19182;41.820;12.808;2024-01-27T13:43:47;29.17;;;15.80;;
32838;SDS011;19182;41.820;12.808;2024-01-27T13:46:16;30.38;;;15.77;;
32838;SDS011;19182;41.820;12.808;2024-01-27T13:48:48;26.33;;;15.15;;
32838;SDS011;19182;41.820;12.808;2024-01-27T13:51:15;25.65;;;15.85;;
32838;SDS011;19182;41.820;12.808;2024-01-27T13:53:42;25.85;;;16.60;;
32838;SDS011;19182;41.820;12.808;2024-01-27T13:56:11;28.33;;;16.77;;
32838;SDS011;19182;41.820;12.808;2024-01-27T13:58:42;24.58;;;14.88;;
32838;SDS011;19182;41.820;12.808;2024-01-27T14:01:08;26.42;;;15.15;;
32838;SDS011;19182;41.820;12.808;2024-01-27T14:03:34;27.63;;;16.00;;
32838;SDS011;19182;41.820;12.808;2024-01-27T14:06:02;30.08;;;16.20;;
32838;SDS011;19182;41.820;12.808;2024-01-27T14:08:31;27.70;;;16.15;;
32838;SDS011;19182;41.820;12.808;2024-01-27T14:10:57;34.10;;;15.60;;
32838;SDS011;19182;41.820;12.808;2024-01-27T14:13:29;24.98;;;16.05;;
32838;SDS011;19182;41.820;12.808;2024-01-27T14:15:56;30.50;;;16.55;;
32838;SDS011;19182;41.820;12.808;2024-01-27T14:18:23;26.67;;;16.40;;